createdAt,value
2022-11-28T00:01:30.267Z,5.93
2022-11-28T00:03:57.701Z,6.35
2022-11-28T00:06:28.032Z,6.38
2022-11-28T00:08:56.257Z,6.45
2022-11-28T00:11:23.538Z,6.30
2022-11-28T00:13:50.916Z,6.05
2022-11-28T00:16:21.657Z,6.13
2022-11-28T00:18:49.470Z,6.00
2022-11-28T00:21:16.676Z,5.82
2022-11-28T00:23:44.964Z,5.72
2022-11-28T00:26:17.285Z,5.97
2022-11-28T00:28:45.505Z,5.65
2022-11-28T00:31:16.969Z,6.03
2022-11-28T00:33:44.472Z,5.82
2022-11-28T00:36:12.463Z,6.03
2022-11-28T00:38:39.734Z,5.75
2022-11-28T00:41:08.003Z,6.00
2022-11-28T00:43:35.287Z,6.32
2022-11-28T00:46:02.868Z,6.10
2022-11-28T00:48:30.193Z,5.85
2022-11-28T00:51:05.721Z,5.82
2022-11-28T00:53:35.022Z,6.40
2022-11-28T00:56:04.785Z,6.47
2022-11-28T00:58:32.903Z,6.93
2022-11-28T01:01:01.781Z,6.82
2022-11-28T01:03:28.898Z,5.53
2022-11-28T01:05:56.092Z,6.57
2022-11-28T01:08:23.222Z,6.47
2022-11-28T01:10:50.410Z,6.97
2022-11-28T01:13:17.794Z,6.55
2022-11-28T01:15:45.325Z,6.35
2022-11-28T01:18:13.855Z,6.88
2022-11-28T01:20:41.070Z,6.95
2022-11-28T01:23:08.257Z,6.65
2022-11-28T01:25:35.728Z,6.88
2022-11-28T01:28:02.976Z,6.75
2022-11-28T01:30:30.365Z,7.07
2022-11-28T01:32:57.615Z,6.88
2022-11-28T01:35:24.987Z,6.72
2022-11-28T01:37:52.341Z,6.45
2022-11-28T01:40:19.849Z,6.88
2022-11-28T01:42:47.210Z,7.18
2022-11-28T01:45:29.826Z,7.07
2022-11-28T01:47:58.434Z,7.03
2022-11-28T01:50:25.870Z,7.10
2022-11-28T01:52:56.790Z,7.00
2022-11-28T01:55:26.022Z,6.93
2022-11-28T01:57:54.400Z,6.90
2022-11-28T02:00:22.225Z,7.28
2022-11-28T02:02:51.265Z,6.57
2022-11-28T02:05:20.506Z,6.53
2022-11-28T02:07:48.118Z,6.50
2022-11-28T02:10:21.637Z,6.35
2022-11-28T02:13:01.246Z,6.78
2022-11-28T02:15:48.696Z,6.93
2022-11-28T02:18:28.415Z,7.03
2022-11-28T02:21:07.960Z,7.13
2022-11-28T02:23:35.159Z,6.93
2022-11-28T02:26:11.357Z,6.95
2022-11-28T02:28:57.399Z,6.70
2022-11-28T02:31:33.791Z,6.97
2022-11-28T02:34:03.524Z,7.38
2022-11-28T02:36:40.272Z,6.63
2022-11-28T02:39:25.908Z,6.63
2022-11-28T02:42:15.865Z,6.67
2022-11-28T02:45:05.426Z,7.10
2022-11-28T02:47:42.246Z,7.07
2022-11-28T02:50:19.328Z,6.90
2022-11-28T02:52:49.753Z,6.95
2022-11-28T02:55:19.058Z,6.20
2022-11-28T02:57:50.312Z,6.82
2022-11-28T03:00:39.407Z,7.40
2022-11-28T03:03:25.351Z,6.97
2022-11-28T03:05:58.994Z,7.07
2022-11-28T03:08:36.033Z,6.78
2022-11-28T03:11:09.043Z,6.90
2022-11-28T03:13:39.751Z,7.13
2022-11-28T03:16:26.121Z,7.05
2022-11-28T03:19:11.168Z,7.50
2022-11-28T03:21:45.023Z,7.40
2022-11-28T03:24:33.781Z,7.32
2022-11-28T03:27:07.054Z,7.22
2022-11-28T03:29:52.265Z,7.28
2022-11-28T03:32:22.544Z,7.38
2022-11-28T03:34:54.693Z,8.20
2022-11-28T03:37:24.397Z,7.38
2022-11-28T03:39:54.867Z,7.45
2022-11-28T03:42:24.062Z,7.05
2022-11-28T03:45:08.914Z,7.60
2022-11-28T03:47:39.376Z,7.50
2022-11-28T03:50:09.778Z,7.03
2022-11-28T03:52:41.437Z,6.95
2022-11-28T03:55:12.438Z,6.82
2022-11-28T03:57:52.855Z,7.15
2022-11-28T04:00:20.057Z,7.57
2022-11-28T04:03:08.383Z,6.78
2022-11-28T04:05:38.671Z,6.88
2022-11-28T04:08:17.806Z,6.63
2022-11-28T04:10:51.377Z,7.15
2022-11-28T04:13:26.632Z,7.07
2022-11-28T04:15:57.070Z,7.82
2022-11-28T04:18:33.689Z,7.45
2022-11-28T04:21:15.343Z,7.53
2022-11-28T04:23:45.233Z,7.63
2022-11-28T04:26:18.182Z,7.38
2022-11-28T04:28:46.219Z,7.93
2022-11-28T04:31:13.853Z,7.28
2022-11-28T04:33:43.351Z,7.30
2022-11-28T04:36:11.495Z,7.40
2022-11-28T04:38:39.664Z,7.27
2022-11-28T04:41:12.015Z,7.55
2022-11-28T04:43:42.155Z,7.68
2022-11-28T04:46:32.813Z,7.63
2022-11-28T04:49:00.631Z,7.70
2022-11-28T04:51:38.549Z,7.43
2022-11-28T04:54:09.766Z,7.55
2022-11-28T04:56:49.363Z,7.70
2022-11-28T04:59:20.415Z,7.72
2022-11-28T05:01:48.787Z,7.38
2022-11-28T05:04:17.880Z,7.33
2022-11-28T05:06:49.023Z,7.75
2022-11-28T05:09:25.490Z,7.72
2022-11-28T05:11:52.743Z,7.57
2022-11-28T05:14:22.733Z,8.25
2022-11-28T05:16:51.168Z,7.70
2022-11-28T05:19:18.806Z,8.02
2022-11-28T05:21:46.403Z,7.80
2022-11-28T05:24:14.049Z,8.23
2022-11-28T05:26:53.871Z,8.15
2022-11-28T05:29:25.075Z,8.00
2022-11-28T05:31:52.586Z,7.82
2022-11-28T05:34:19.994Z,7.82
2022-11-28T05:36:47.386Z,8.23
2022-11-28T05:39:15.089Z,8.27
2022-11-28T05:41:42.472Z,7.75
2022-11-28T05:44:10.377Z,8.07
2022-11-28T05:46:37.737Z,7.50
2022-11-28T05:49:05.010Z,7.85
2022-11-28T05:51:32.438Z,7.72
2022-11-28T05:53:59.831Z,7.85
2022-11-28T05:56:27.258Z,8.20
2022-11-28T05:58:54.773Z,8.63
2022-11-28T06:01:23.534Z,8.23
2022-11-28T06:03:52.130Z,7.70
2022-11-28T06:06:27.613Z,8.30
2022-11-28T06:08:56.277Z,7.93
2022-11-28T06:11:24.707Z,8.00
2022-11-28T06:13:52.335Z,8.38
2022-11-28T06:16:21.269Z,9.20
2022-11-28T06:18:48.547Z,7.90
2022-11-28T06:21:16.263Z,7.80
2022-11-28T06:23:43.546Z,8.20
2022-11-28T06:26:15.886Z,8.00
2022-11-28T06:28:44.865Z,8.77
2022-11-28T06:31:15.258Z,8.47
2022-11-28T06:33:43.263Z,9.32
2022-11-28T06:36:11.522Z,8.88
2022-11-28T06:38:39.511Z,8.40
2022-11-28T06:41:08.244Z,8.07
2022-11-28T06:43:35.676Z,8.37
2022-11-28T06:46:03.053Z,8.45
2022-11-28T06:48:30.425Z,8.23
2022-11-28T06:51:08.155Z,8.35
2022-11-28T06:53:37.571Z,8.02
2022-11-28T06:56:05.954Z,8.00
2022-11-28T06:58:33.096Z,8.85
2022-11-28T07:01:06.627Z,8.32
2022-11-28T07:03:34.436Z,9.05
2022-11-28T07:06:06.403Z,9.32
2022-11-28T07:08:34.285Z,8.53
2022-11-28T07:11:21.772Z,8.27
2022-11-28T07:13:50.286Z,8.73
2022-11-28T07:16:22.000Z,8.82
2022-11-28T07:18:49.813Z,9.30
2022-11-28T07:21:17.502Z,9.63
2022-11-28T07:23:45.116Z,9.30
2022-11-28T07:26:13.532Z,9.40
2022-11-28T07:28:41.332Z,9.88
2022-11-28T07:31:13.444Z,10.20
2022-11-28T07:33:42.107Z,9.87
2022-11-28T07:36:13.960Z,11.05
2022-11-28T07:38:41.429Z,9.77
2022-11-28T18:30:15.467Z,16.57
2022-11-28T18:32:42.707Z,15.63
2022-11-28T18:35:09.980Z,15.15
2022-11-28T18:37:37.205Z,16.83
2022-11-28T18:40:08.897Z,16.38
2022-11-28T18:42:36.738Z,17.33
2022-11-28T18:45:04.193Z,17.48
2022-11-28T18:47:35.617Z,16.77
2022-11-28T18:50:07.427Z,18.38
2022-11-28T18:52:34.712Z,17.63
2022-11-28T18:55:01.951Z,16.13
2022-11-28T18:57:33.742Z,16.35
2022-11-28T19:00:01.976Z,16.70
2022-11-28T19:02:36.505Z,15.73
2022-11-28T19:05:03.758Z,15.05
2022-11-28T19:07:31.068Z,16.03
2022-11-28T19:09:58.333Z,15.82
2022-11-28T19:12:25.628Z,16.17
2022-11-28T19:14:56.099Z,15.23
2022-11-28T19:17:26.216Z,15.55
2022-11-28T19:19:53.366Z,15.33
2022-11-28T19:22:21.696Z,15.80
2022-11-28T19:24:48.987Z,15.93
2022-11-28T19:27:16.151Z,16.05
2022-11-28T19:29:43.808Z,14.98
2022-11-28T19:32:12.809Z,15.60
2022-11-28T19:34:40.506Z,14.82
2022-11-28T19:37:08.024Z,14.55
2022-11-28T19:39:35.690Z,16.50
2022-11-28T19:42:03.866Z,16.02
2022-11-28T19:44:31.425Z,15.17
2022-11-28T19:46:59.085Z,16.88
2022-11-28T19:49:29.494Z,15.20
2022-11-28T19:51:57.067Z,15.98
2022-11-28T19:54:24.668Z,15.85
2022-11-28T19:56:52.123Z,15.57
2022-11-28T19:59:21.867Z,15.18
2022-11-28T20:01:50.057Z,15.65
2022-11-28T20:04:17.451Z,17.83
2022-11-28T20:06:44.772Z,16.25
2022-11-28T20:09:13.692Z,18.77
2022-11-28T20:11:41.179Z,18.80
2022-11-28T20:14:12.346Z,17.95
2022-11-28T20:16:39.878Z,17.15
2022-11-28T20:19:07.791Z,18.17
2022-11-28T20:21:35.565Z,19.43
2022-11-28T20:24:05.076Z,18.33
2022-11-28T20:26:34.683Z,17.70
2022-11-28T20:29:02.243Z,18.85
2022-11-28T20:31:30.986Z,18.38
2022-11-28T20:33:58.833Z,17.57
2022-11-28T20:36:27.089Z,17.50
2022-11-28T20:38:54.739Z,18.33
2022-11-28T20:41:26.781Z,18.00
2022-11-28T20:43:54.328Z,18.05
2022-11-28T20:46:27.320Z,18.93
2022-11-28T20:48:56.999Z,19.17
2022-11-28T20:51:25.142Z,19.38
2022-11-28T20:53:52.816Z,19.40
2022-11-28T20:56:21.324Z,20.52
2022-11-28T20:58:48.476Z,19.27
2022-11-28T21:01:16.375Z,19.65
2022-11-28T21:03:43.617Z,20.25
2022-11-28T21:06:11.122Z,20.05
2022-11-28T21:08:38.449Z,20.27
2022-11-28T21:11:36.485Z,20.57
2022-11-28T21:14:02.657Z,20.10
2022-11-28T21:16:35.573Z,20.52
2022-11-28T21:19:05.456Z,21.23
2022-11-28T21:21:33.293Z,21.75
2022-11-28T21:24:05.562Z,19.60
2022-11-28T21:26:39.117Z,20.05
2022-11-28T21:29:09.410Z,20.48
2022-11-28T21:31:38.401Z,20.48
2022-11-28T21:34:05.754Z,21.67
2022-11-28T21:36:42.374Z,21.43
2022-11-28T21:39:18.518Z,22.55
2022-11-28T21:41:47.251Z,22.20
2022-11-28T21:44:15.182Z,21.52
2022-11-28T21:46:42.359Z,22.33
2022-11-28T21:49:11.417Z,22.93
2022-11-28T21:51:38.592Z,22.20
2022-11-28T21:54:05.784Z,23.25
2022-11-28T21:56:33.960Z,22.70
2022-11-28T21:59:01.063Z,23.05
2022-11-28T22:01:28.243Z,20.57
2022-11-28T22:04:00.594Z,22.92
2022-11-28T22:09:25.223Z,22.55
2022-11-28T22:11:52.686Z,21.90
2022-11-28T22:14:20.130Z,23.90
2022-11-28T22:16:47.665Z,23.88
2022-11-28T22:19:15.190Z,25.63
2022-11-28T22:21:51.524Z,25.67
2022-11-28T22:27:02.313Z,26.67
2022-11-28T22:29:29.725Z,23.15
2022-11-28T22:31:57.225Z,26.42
2022-11-28T22:34:24.952Z,25.30
2022-11-28T22:36:52.394Z,24.35
2022-11-28T22:39:19.756Z,26.20
2022-11-28T22:41:47.162Z,24.00
2022-11-28T22:44:14.520Z,26.15
2022-11-28T22:46:41.854Z,24.75
2022-11-28T22:49:10.311Z,26.05
2022-11-28T22:51:40.484Z,21.50
2022-11-28T22:54:07.636Z,24.90
2022-11-28T22:56:34.936Z,25.92
2022-11-28T22:59:04.740Z,27.65
2022-11-28T23:01:33.204Z,23.73
2022-11-28T23:04:00.756Z,24.77
2022-11-28T23:06:31.970Z,27.60
2022-11-28T23:08:59.842Z,22.48
2022-11-28T23:11:30.871Z,23.27
2022-11-28T23:13:58.524Z,25.70
2022-11-28T23:16:33.008Z,25.40
2022-11-28T23:19:01.542Z,21.95
2022-11-28T23:21:33.218Z,26.20
2022-11-28T23:24:00.712Z,23.00
2022-11-28T23:26:29.148Z,24.77
2022-11-28T23:28:56.887Z,22.37
2022-11-28T23:31:25.502Z,23.48
2022-11-28T23:33:52.759Z,24.00
2022-11-28T23:36:29.305Z,22.27
2022-11-28T23:38:58.209Z,23.83
2022-11-28T23:41:26.118Z,22.37
2022-11-28T23:43:56.325Z,22.35
2022-11-28T23:46:23.885Z,21.10
2022-11-28T23:48:51.293Z,24.77
2022-11-28T23:51:19.314Z,20.95
2022-11-28T23:53:46.487Z,23.10
2022-11-28T23:56:14.893Z,22.63
2022-11-28T23:58:42.445Z,22.92
